.
WxDataArchive / Data Records for 2013-05-28
2013-05-27 May 2013 2013-05-29

Data Records for Tuesday, 28 May 2013

Time	Temp	Chill	HIndex	Humid	Dewpt	 Wind 	HiWind	WindDir	Rain 	Barom 
-----	----	-----	------	-----	-----	------	------	-------	-----	----- 
00:00	57.3	57.3	57.3	96	56.2	0	1	68	0.00	29.929 
00:05	57.3	57.3	57.3	96	56.2	0	1	68	0.00	29.929 
00:10	57.5	57.5	57.5	96	56.4	0	1	68	0.00	29.929 
00:15	57.5	57.5	57.5	96	56.4	0	1	68	0.00	29.922 
00:20	57.6	57.6	57.6	96	56.5	0	1	68	0.00	29.922 
00:25	57.6	57.6	57.6	96	56.5	0	0	---	0.00	29.922 
00:30	57.8	57.8	57.8	96	56.7	0	0	---	0.00	29.918 
00:35	57.8	57.8	57.8	96	56.7	0	1	68	0.00	29.918 
00:40	58.0	58.0	58.0	96	56.9	0	2	68	0.00	29.918 
00:45	58.0	58.0	58.0	96	56.9	0	1	68	0.00	29.916 
00:50	58.0	58.0	58.0	96	56.9	0	0	---	0.00	29.916 
00:55	58.0	58.0	58.0	96	56.9	0	0	---	0.00	29.916 
01:00	58.1	58.1	58.1	96	57.0	0	0	---	0.00	29.913 
01:05	58.1	58.1	58.1	96	57.0	0	0	---	0.00	29.913 
01:10	58.3	58.3	58.3	96	57.2	0	1	68	0.00	29.913 
01:15	58.3	58.3	58.3	96	57.2	0	0	---	0.00	29.911 
01:20	58.3	58.3	58.3	96	57.2	0	0	---	0.00	29.911 
01:25	58.1	58.1	58.1	96	57.0	0	0	---	0.00	29.911 
01:30	58.1	58.1	58.1	96	57.0	0	0	---	0.00	29.911 
01:35	58.1	58.1	58.1	96	57.0	0	0	---	0.00	29.911 
01:40	58.0	58.0	58.0	96	56.9	0	0	---	0.00	29.911 
01:45	58.0	58.0	58.0	96	56.9	0	0	---	0.00	29.914 
01:50	58.0	58.0	58.0	96	56.9	0	0	---	0.00	29.914 
01:55	57.8	57.8	57.8	96	56.7	0	0	---	0.00	29.914 
02:00	57.8	57.8	57.8	96	56.7	0	0	---	0.00	29.911 
02:05	58.0	58.0	58.0	96	56.9	0	0	---	0.00	29.911 
02:10	58.0	58.0	58.0	96	56.9	0	0	---	0.00	29.911 
02:15	58.0	58.0	58.0	96	56.9	0	0	---	0.00	29.913 
02:20	58.1	58.1	58.1	96	57.0	0	0	---	0.00	29.913 
02:25	58.1	58.1	58.1	96	57.0	0	0	---	0.00	29.913 
02:30	58.1	58.1	58.1	96	57.0	0	0	---	0.00	29.918 
02:35	58.1	58.1	58.1	97	57.3	0	0	---	0.00	29.918 
02:40	58.3	58.3	58.3	97	57.5	0	0	---	0.00	29.918 
02:45	58.3	58.3	58.3	97	57.5	0	0	---	0.00	29.920 
02:50	58.3	58.3	58.3	97	57.5	0	0	---	0.00	29.920 
02:55	58.3	58.3	58.3	97	57.5	0	0	---	0.00	29.920 
03:00	58.4	58.4	58.4	97	57.5	0	0	---	0.00	29.913 
03:05	58.4	58.4	58.4	97	57.5	0	0	---	0.00	29.913 
03:10	58.4	58.4	58.4	97	57.5	0	0	---	0.00	29.913 
03:15	58.6	58.6	58.6	97	57.7	0	0	---	0.00	29.909 
03:20	58.7	58.7	58.7	97	57.8	0	0	---	0.00	29.909 
03:25	58.7	58.7	58.7	97	57.8	0	0	---	0.00	29.909 
03:30	58.7	58.7	58.7	97	57.8	0	0	---	0.00	29.907 
03:35	58.7	58.7	58.7	97	57.8	0	0	---	0.00	29.907 
03:40	58.6	58.6	58.6	97	57.7	0	0	---	0.00	29.907 
03:45	58.6	58.6	58.6	97	57.7	0	0	---	0.00	29.909 
03:50	58.6	58.6	58.6	97	57.7	0	0	---	0.00	29.909 
03:55	58.7	58.7	58.7	97	57.8	0	0	---	0.00	29.909 
04:00	59.0	59.0	59.0	97	58.1	0	0	---	0.00	29.909 
04:05	59.5	59.5	59.5	97	58.6	0	0	---	0.00	29.909 
04:10	60.4	60.4	60.4	97	59.5	0	0	---	0.00	29.909 
04:15	61.2	61.2	61.2	97	60.3	0	2	68	0.01	29.913 
04:20	62.0	62.0	62.0	97	61.1	0	2	68	0.03	29.913 
04:25	62.7	62.7	62.7	97	61.8	1	3	68	0.06	29.913 
04:30	63.2	63.2	63.2	97	62.3	1	2	270	0.07	29.917 
04:35	63.2	63.2	63.2	97	62.3	1	3	270	0.04	29.917 
04:40	63.4	63.4	63.4	97	62.5	1	3	248	0.04	29.917 
04:45	63.5	63.5	63.5	97	62.6	0	2	248	0.02	29.911 
04:50	63.5	63.5	63.5	97	62.6	0	4	248	0.01	29.911 
04:55	63.5	63.5	63.5	97	62.6	0	2	248	0.01	29.911 
05:00	63.5	63.5	63.5	97	62.6	0	1	248	0.01	29.918 
05:05	63.5	63.5	63.5	97	62.6	0	0	---	0.01	29.918 
05:10	63.5	63.5	63.5	97	62.6	0	1	248	0.01	29.918 
05:15	63.4	63.4	63.4	97	62.5	0	0	---	0.01	29.921 
05:20	63.4	63.4	63.4	97	62.5	0	0	---	0.00	29.921 
05:25	63.4	63.4	63.4	97	62.5	0	0	---	0.00	29.921 
05:30	63.4	63.4	63.4	97	62.5	0	0	---	0.00	29.910 
05:35	63.4	63.4	63.4	97	62.5	0	0	---	0.00	29.910 
05:40	63.4	63.4	63.4	97	62.5	0	1	248	0.00	29.910 
05:45	63.2	63.2	63.2	97	62.3	0	0	---	0.00	29.916 
05:50	63.2	63.2	63.2	97	62.3	0	0	---	0.00	29.916 
05:55	63.2	63.2	63.2	97	62.3	0	0	---	0.00	29.916 
06:00	63.2	63.2	63.2	97	62.3	0	0	---	0.00	29.922 
06:05	63.2	63.2	63.2	97	62.3	0	1	248	0.00	29.922 
06:10	63.2	63.2	63.2	97	62.3	0	1	248	0.00	29.922 
06:15	63.2	63.2	63.2	97	62.3	0	1	248	0.00	29.937 
06:20	63.4	63.4	63.4	97	62.5	0	1	248	0.00	29.937 
06:25	63.4	63.4	63.4	97	62.5	0	0	---	0.00	29.937 
06:30	63.2	63.2	63.2	97	62.3	0	0	---	0.00	29.924 
06:35	63.2	63.2	63.2	97	62.3	0	0	---	0.00	29.924 
06:40	63.1	63.1	63.1	97	62.2	0	0	---	0.00	29.924 
06:45	63.1	63.1	63.1	97	62.2	0	0	---	0.00	29.915 
06:50	63.1	63.1	63.1	97	62.2	0	0	---	0.00	29.915 
06:55	63.1	63.1	63.1	97	62.2	0	0	---	0.00	29.915 
07:00	63.1	63.1	63.1	97	62.2	0	0	---	0.00	29.918 
07:05	63.1	63.1	63.1	97	62.2	0	0	---	0.00	29.918 
07:10	63.2	63.2	63.2	97	62.3	0	0	---	0.00	29.918 
07:15	63.2	63.2	63.2	97	62.3	0	0	---	0.00	29.921 
07:20	63.4	63.4	63.4	97	62.5	0	0	---	0.00	29.921 
07:25	63.4	63.4	63.4	97	62.5	0	0	---	0.00	29.921 
07:30	63.5	63.5	63.5	97	62.6	0	0	---	0.00	29.918 
07:35	63.5	63.5	63.5	97	62.6	0	0	---	0.00	29.918 
07:40	63.7	63.7	63.7	97	62.8	0	0	---	0.00	29.918 
07:45	63.7	63.7	63.7	97	62.8	0	1	292	0.00	29.918 
07:50	63.9	63.9	63.9	97	63.0	0	1	292	0.00	29.918 
07:55	64.0	64.0	64.0	97	63.1	0	1	292	0.00	29.918 
08:00	64.0	64.0	64.0	97	63.1	0	1	292	0.00	29.919 
08:05	64.2	64.2	64.2	97	63.3	0	1	292	0.00	29.919 
08:10	64.2	64.2	64.2	97	63.3	0	1	292	0.00	29.919 
08:15	64.2	64.2	64.2	97	63.3	0	2	292	0.00	29.916 
08:20	64.2	64.2	64.2	97	63.3	0	3	90	0.00	29.916 
08:25	64.2	64.2	64.2	97	63.3	0	3	90	0.00	29.916 
08:30	64.2	64.2	64.2	97	63.3	1	3	90	0.00	29.915 
08:35	64.2	64.2	64.2	97	63.3	0	2	90	0.00	29.915 
08:40	64.2	64.2	64.2	97	63.3	0	2	90	0.00	29.915 
08:45	64.2	64.2	64.2	97	63.3	0	2	90	0.00	29.919 
08:50	64.2	64.2	64.2	97	63.3	0	1	90	0.00	29.919 
08:55	64.3	64.3	64.3	97	63.4	0	1	90	0.00	29.919 
09:00	64.5	64.5	64.5	97	63.6	0	2	90	0.00	29.919 
09:05	64.5	64.5	64.5	97	63.6	0	1	90	0.00	29.919 
09:10	64.7	64.7	64.7	97	63.8	0	1	90	0.00	29.919 
09:15	64.7	64.7	64.7	97	63.8	0	2	90	0.00	29.916 
09:20	64.8	64.8	64.8	97	63.9	0	1	90	0.00	29.916 
09:25	65.0	65.0	65.0	97	64.1	0	1	90	0.00	29.916 
09:30	65.2	65.2	65.2	97	64.3	0	2	90	0.00	29.906 
09:35	65.3	65.3	65.3	97	64.4	0	1	90	0.00	29.906 
09:40	65.5	65.5	65.5	97	64.6	0	3	90	0.00	29.906 
09:45	65.8	65.8	65.8	97	64.9	0	2	90	0.00	29.897 
09:50	66.3	66.3	66.3	97	65.4	0	2	90	0.00	29.897 
09:55	66.8	66.8	66.8	97	65.9	0	3	90	0.00	29.897 
10:00	67.3	67.3	67.3	97	66.4	0	2	90	0.00	29.896 
10:05	67.8	67.8	67.8	97	66.9	0	3	90	0.00	29.896 
10:10	68.1	68.1	68.1	97	67.2	0	4	225	0.00	29.896 
10:15	68.3	68.3	68.3	97	67.4	0	3	292	0.00	29.892 
10:20	68.3	68.3	68.3	97	67.4	1	5	248	0.00	29.892 
10:25	68.4	68.4	68.4	96	67.2	1	3	248	0.00	29.892 
10:30	68.9	68.9	68.9	96	67.7	0	3	112	0.00	29.890 
10:35	68.9	68.9	68.9	96	67.7	1	3	292	0.00	29.890 
10:40	69.3	69.3	69.3	95	67.8	0	4	292	0.00	29.890 
10:45	69.4	69.4	69.4	95	67.9	1	4	270	0.00	29.892 
10:50	69.6	69.6	69.6	93	67.5	1	4	270	0.00	29.892 
10:55	69.9	69.9	69.9	92	67.5	1	6	248	0.00	29.892 
11:00	70.3	70.3	70.3	89	66.9	1	3	248	0.00	29.888 
11:05	70.8	70.8	70.8	87	66.7	1	6	22	0.00	29.888 
11:10	71.1	71.1	71.1	84	66.0	1	5	270	0.00	29.888 
11:15	71.5	71.5	71.5	83	66.1	1	4	248	0.00	29.883 
11:20	71.8	71.8	71.8	81	65.6	1	4	248	0.00	29.883 
11:25	72.1	72.1	72.1	80	65.6	1	4	270	0.00	29.883 
11:30	72.7	72.7	72.7	80	66.2	1	5	270	0.00	29.880 
11:35	73.0	73.0	73.0	78	65.7	2	9	248	0.00	29.880 
11:40	73.5	73.5	73.5	79	66.6	1	6	225	0.00	29.880 
11:45	74.2	74.2	74.2	77	66.5	1	4	248	0.00	29.880 
11:50	74.4	74.4	74.4	75	65.9	2	10	248	0.00	29.880 
11:55	74.9	74.9	74.9	75	66.4	2	5	248	0.00	29.880 
12:00	75.1	75.1	76.5	73	65.8	2	9	270	0.00	29.872 
12:05	75.1	75.1	76.5	73	65.8	2	6	270	0.00	29.872 
12:10	75.3	75.3	76.6	74	66.4	2	7	248	0.00	29.872 
12:15	75.3	75.3	76.8	72	65.6	3	8	248	0.00	29.878 
12:20	75.4	75.4	76.8	73	66.1	2	6	248	0.00	29.878 
12:25	75.4	75.4	76.9	72	65.7	2	9	248	0.00	29.878 
12:30	75.4	75.4	76.8	73	66.1	1	5	248	0.00	29.877 
12:35	75.8	75.8	77.3	73	66.5	2	6	270	0.00	29.877 
12:40	75.8	75.8	77.3	72	66.1	2	7	270	0.00	29.877 
12:45	75.4	75.4	76.7	74	66.5	1	6	248	0.00	29.878 
12:50	75.3	75.3	76.6	74	66.4	1	5	292	0.00	29.878 
12:55	75.4	75.4	76.7	74	66.5	2	5	270	0.00	29.878 
13:00	76.0	76.0	77.5	73	66.7	2	5	292	0.00	29.866 
13:05	76.1	76.1	77.6	73	66.8	2	7	248	0.00	29.866 
13:10	76.7	76.7	78.4	72	67.0	2	9	270	0.00	29.866 
13:15	77.4	77.4	79.3	72	67.6	1	5	22	0.00	29.857 
13:20	77.9	77.9	79.9	69	66.9	2	6	270	0.00	29.857 
13:25	77.9	77.9	79.9	69	66.9	3	8	270	0.00	29.857 
13:30	77.6	77.6	79.5	70	67.0	2	6	270	0.00	29.834 
13:35	77.4	77.4	79.3	71	67.2	1	4	315	0.00	29.834 
13:40	77.4	77.4	79.3	70	66.8	1	4	270	0.00	29.834 
13:45	77.4	77.4	79.3	70	66.8	2	6	270	0.00	29.835 
13:50	77.2	77.2	79.0	70	66.6	2	5	248	0.00	29.835 
13:55	76.8	76.8	78.5	70	66.3	2	5	248	0.00	29.835 
14:00	77.0	77.0	78.8	70	66.4	2	4	248	0.00	29.839 
14:05	76.8	76.8	78.5	70	66.3	2	5	292	0.00	29.839 
14:10	76.8	76.8	78.5	71	66.7	2	7	248	0.00	29.839 
14:15	76.8	76.8	78.5	72	67.1	1	4	270	0.00	29.836 
14:20	76.8	76.8	78.5	71	66.7	1	4	270	0.00	29.836 
14:25	77.0	77.0	78.7	72	67.3	1	4	315	0.00	29.836 
14:30	77.4	77.4	79.2	69	66.4	3	8	270	0.00	29.842 
14:35	77.6	77.6	79.5	68	66.2	3	9	270	0.00	29.842 
14:40	77.9	77.9	79.8	68	66.5	3	5	292	0.00	29.842 
14:45	78.3	78.3	80.3	68	66.8	2	5	270	0.00	29.841 
14:50	78.3	78.3	80.3	67	66.4	2	7	270	0.00	29.841 
14:55	78.1	78.1	80.0	66	65.8	2	13	248	0.00	29.841 
15:00	78.1	78.1	80.0	67	66.2	1	5	270	0.00	29.846 
15:05	77.9	77.9	79.8	67	66.0	2	4	248	0.00	29.846 
15:10	77.7	77.7	79.6	67	65.8	2	11	338	0.00	29.846 
15:15	77.7	77.7	79.6	66	65.4	2	5	270	0.00	29.848 
15:20	77.7	77.7	79.6	66	65.4	2	5	248	0.00	29.848 
15:25	77.7	77.7	79.6	66	65.4	2	6	248	0.00	29.848 
15:30	78.1	78.1	80.0	67	66.2	1	5	248	0.00	29.847 
15:35	78.5	78.5	80.5	66	66.2	2	5	270	0.00	29.847 
15:40	78.6	78.6	80.6	65	65.8	2	7	248	0.00	29.847 
15:45	78.5	78.5	80.4	65	65.7	2	5	248	0.00	29.850 
15:50	78.5	78.5	80.4	65	65.7	2	7	248	0.00	29.850 
15:55	78.8	78.8	80.7	63	65.1	3	10	270	0.00	29.850 
16:00	79.0	79.0	80.8	62	64.8	2	7	270	0.00	29.852 
16:05	79.0	79.0	80.8	62	64.8	1	5	270	0.00	29.852 
16:10	78.8	78.8	80.6	62	64.7	3	7	248	0.00	29.852 
16:15	78.8	78.8	80.6	62	64.7	2	6	270	0.00	29.846 
16:20	78.8	78.8	80.6	62	64.7	2	5	270	0.00	29.846 
16:25	78.8	78.8	80.6	62	64.7	2	7	270	0.00	29.846 
16:30	79.4	79.4	81.3	62	65.2	3	10	248	0.00	29.846 
16:35	79.9	79.9	81.7	60	64.7	2	6	248	0.00	29.846 
16:40	79.9	79.9	81.6	59	64.3	3	10	248	0.00	29.846 
16:45	79.8	79.8	81.6	60	64.7	2	7	248	0.00	29.839 
16:50	79.8	79.8	81.6	60	64.7	1	4	248	0.00	29.839 
16:55	79.8	79.8	81.6	60	64.7	2	6	248	0.00	29.839 
17:00	80.1	80.1	81.9	60	64.9	2	6	270	0.00	29.839 
17:05	80.1	80.1	81.8	59	64.5	3	7	270	0.00	29.839 
17:10	80.1	80.1	81.8	59	64.5	2	8	270	0.00	29.839 
17:15	80.3	80.3	82.2	60	65.1	2	6	248	0.00	29.839 
17:20	80.5	80.5	82.2	58	64.3	3	9	248	0.00	29.839 
17:25	80.9	80.9	82.8	59	65.2	2	6	270	0.00	29.839 
17:30	80.9	80.9	82.4	56	63.7	3	9	270	0.00	29.826 
17:35	80.3	80.3	81.9	58	64.2	2	6	270	0.00	29.826 
17:40	79.9	79.9	81.6	59	64.3	2	4	248	0.00	29.826 
17:45	79.8	79.8	81.6	60	64.7	1	7	248	0.00	29.827 
17:50	79.6	79.6	81.4	61	64.9	1	3	270	0.00	29.827 
17:55	79.8	79.8	81.8	62	65.6	1	5	270	0.00	29.827 
18:00	79.8	79.8	81.8	62	65.6	2	4	270	0.00	29.839 
18:05	79.8	79.8	81.8	62	65.6	1	6	270	0.00	29.839 
18:10	79.6	79.6	81.6	63	65.9	0	2	315	0.00	29.839 
18:15	79.6	79.6	81.5	62	65.4	1	5	248	0.00	29.840 
18:20	79.6	79.6	81.5	62	65.4	1	5	248	0.00	29.840 
18:25	79.4	79.4	81.4	63	65.7	2	4	248	0.00	29.840 
18:30	79.4	79.4	81.4	63	65.7	1	5	248	0.00	29.832 
18:35	79.4	79.4	81.4	63	65.7	1	4	270	0.00	29.832 
18:40	79.4	79.4	81.4	63	65.7	1	6	270	0.00	29.832 
18:45	79.4	79.4	81.4	63	65.7	1	5	270	0.00	29.837 
18:50	79.6	79.6	81.6	63	65.9	1	3	270	0.00	29.837 
18:55	79.6	79.6	81.6	63	65.9	1	3	248	0.00	29.837 
19:00	79.6	79.6	81.6	63	65.9	1	3	248	0.00	29.838 
19:05	79.6	79.6	81.6	63	65.9	2	7	248	0.00	29.838 
19:10	79.4	79.4	81.4	63	65.7	1	3	248	0.00	29.838 
19:15	79.4	79.4	81.5	64	66.1	1	4	248	0.00	29.834 
19:20	79.2	79.2	81.2	64	65.9	1	4	248	0.00	29.834 
19:25	79.0	79.0	81.0	64	65.8	1	6	270	0.00	29.834 
19:30	79.0	79.0	81.0	65	66.2	1	3	270	0.00	29.833 
19:35	78.8	78.8	80.8	65	66.0	1	4	90	0.00	29.833 
19:40	78.6	78.6	80.6	65	65.8	1	3	270	0.00	29.833 
19:45	78.6	78.6	80.6	65	65.8	1	5	248	0.00	29.837 
19:50	78.6	78.6	80.6	65	65.8	1	4	270	0.00	29.837 
19:55	78.6	78.6	80.6	65	65.8	1	4	270	0.00	29.837 
20:00	78.6	78.6	80.6	65	65.8	1	4	248	0.00	29.841 
20:05	78.5	78.5	80.5	66	66.2	0	2	270	0.00	29.841 
20:10	78.3	78.3	80.2	66	66.0	1	3	270	0.00	29.841 
20:15	78.1	78.1	80.0	67	66.2	1	3	270	0.00	29.841 
20:20	78.1	78.1	80.0	67	66.2	0	1	270	0.00	29.841 
20:25	77.9	77.9	79.8	68	66.5	0	3	270	0.00	29.841 
20:30	77.7	77.7	79.6	68	66.3	0	2	270	0.00	29.834 
20:35	77.6	77.6	79.5	68	66.2	0	3	270	0.00	29.834 
20:40	77.4	77.4	79.2	69	66.4	0	2	292	0.00	29.834 
20:45	77.2	77.2	79.0	69	66.2	0	3	292	0.00	29.828 
20:50	77.0	77.0	78.8	70	66.4	0	1	292	0.00	29.828 
20:55	76.7	76.7	78.4	71	66.6	0	1	292	0.00	29.828 
21:00	76.5	76.5	78.2	71	66.4	0	2	292	0.00	29.826 
21:05	76.3	76.3	77.9	72	66.6	0	1	292	0.00	29.826 
21:10	76.0	76.0	77.5	72	66.3	0	4	270	0.00	29.826 
21:15	75.8	75.8	77.3	72	66.1	0	1	270	0.00	29.821 
21:20	75.8	75.8	77.3	72	66.1	0	1	270	0.00	29.821 
21:25	75.4	75.4	76.8	73	66.1	0	1	270	0.00	29.821 
21:30	75.3	75.3	76.7	73	66.0	0	2	270	0.00	29.819 
21:35	75.3	75.3	76.8	72	65.6	0	3	270	0.00	29.819 
21:40	75.3	75.3	76.8	72	65.6	0	2	270	0.00	29.819 
21:45	75.3	75.3	76.9	71	65.2	0	4	270	0.00	29.822 
21:50	75.3	75.3	76.9	71	65.2	0	3	22	0.00	29.822 
21:55	75.3	75.3	76.9	71	65.2	0	3	248	0.00	29.822 
22:00	75.1	75.1	76.7	71	65.0	0	2	248	0.00	29.827 
22:05	75.1	75.1	76.7	71	65.0	0	3	248	0.00	29.827 
22:10	75.1	75.1	76.7	71	65.0	0	2	338	0.00	29.827 
22:15	75.3	75.3	77.0	70	64.8	1	3	90	0.00	29.823 
22:20	75.3	75.3	77.0	70	64.8	0	1	90	0.00	29.823 
22:25	75.3	75.3	77.0	70	64.8	0	2	90	0.00	29.823 
22:30	75.1	75.1	76.9	69	64.2	0	4	112	0.00	29.840 
22:35	75.1	75.1	76.9	69	64.2	0	2	112	0.00	29.840 
22:40	75.1	75.1	76.9	69	64.2	1	4	292	0.00	29.840 
22:45	75.1	75.1	76.9	69	64.2	0	2	315	0.00	29.839 
22:50	74.9	74.9	74.9	69	64.0	0	1	315	0.00	29.839 
22:55	74.7	74.7	74.7	70	64.2	0	1	315	0.00	29.839 
23:00	74.6	74.6	74.6	71	64.6	0	2	292	0.00	29.846 
23:05	74.7	74.7	74.7	71	64.7	0	1	292	0.00	29.846 
23:10	74.7	74.7	74.7	71	64.7	0	3	292	0.00	29.846 
23:15	74.9	74.9	74.9	71	64.8	1	7	292	0.00	29.851 
23:20	74.9	74.9	74.9	71	64.8	0	3	270	0.00	29.851 
23:25	74.9	74.9	74.9	71	64.8	0	2	270	0.00	29.851 
23:30	75.1	75.1	76.7	71	65.0	0	3	292	0.00	29.850 
23:35	75.1	75.1	76.7	71	65.0	1	4	45	0.00	29.850 
23:40	75.1	75.1	76.7	71	65.0	1	3	270	0.00	29.850 
23:45	75.1	75.1	76.7	71	65.0	1	3	292	0.00	29.851 
23:50	75.1	75.1	76.7	71	65.0	1	4	292	0.00	29.851 
23:55	75.3	75.3	76.9	71	65.2	1	3	292	0.00	29.851 

CoCoRaHS
IN-AL-39
A2 Web Hosting
Creative Commons License
GoDaddy
search engine by freefind advanced

loaded 2018-11-13 01:30:16 • last modified 2010-11-18 10:43:29
Privacy PolicyDisclaimer
• wx.awcolley.com is powered by PmWiki v.2002016 •
• all content (unless otherwise noted) © 2018 A W Colley